Jane A. Bouchard — WDB4391 — position and weather

sailwx.info

Track history (hours):
 
Tides and Currents Weather Stations Pressure Air Temp Water Temp Dewpoint Dewpoint Depression Visibility Wind Speed Wind Dir Waves Ship Positions

Jane A. Bouchard

Owner: TUG JANE A BOUCHARD, MELVILLE, NY. More information available from US FCC via Universal Licensing System and Coast Guard Vessel Documentation Center.

Last reported at 2017-Nov-19 14:00 UTC. Time now 2017-Nov-19 14:13 UTC.
Position N 40°40' W 074°03'.

Length 163 m; draft 7 m.

Type: Towing. MMSI: 366897920.

Date/timePositionNaut miles runAvg speedWind from/ knotsBaromVisibWave heightAir tempDewpointWater temp
2017-Nov-19 14:00N 40°40' W 074°03'1 1.1
2017-Nov-19 13:30N 40°39' W 074°03'0 0.2
2017-Nov-19 13:00N 40°39' W 074°03'0 0.3
2017-Nov-19 12:30N 40°39' W 074°03'0 0.2
2017-Nov-19 12:00N 40°39' W 074°03'0 0.3
2017-Nov-19 11:30N 40°39' W 074°03'4 7.4
2017-Nov-19 11:00N 40°39' W 074°08'3 5.2
2017-Nov-19 10:30N 40°39' W 074°11'3 5.4
2017-Nov-19 10:00N 40°36' W 074°12'3 5.4
2017-Nov-19 09:29N 40°33' W 074°13'2 3.2
2017-Nov-19 09:00N 40°33' W 074°15'0 0.1
2017-Nov-19 08:30N 40°33' W 074°15'0 0.0
2017-Nov-19 07:57N 40°33' W 074°15'0 0.0
2017-Nov-19 03:44N 40°33' W 074°15'0 0.0
2017-Nov-19 03:20N 40°33' W 074°15'0 0.0
2017-Nov-19 02:50N 40°33' W 074°15'0 0.0
2017-Nov-19 02:26N 40°33' W 074°15'0 0.0
2017-Nov-19 01:44N 40°33' W 074°15'0 0.0
2017-Nov-19 01:20N 40°33' W 074°15'0 0.0
2017-Nov-19 00:56N 40°33' W 074°15'0 0.0
2017-Nov-19 00:26N 40°33' W 074°15'0 0.0
2017-Nov-18 22:44N 40°33' W 074°15'0 0.0
2017-Nov-18 22:20N 40°33' W 074°15'0 0.0
2017-Nov-18 21:50N 40°33' W 074°15'0 0.0
2017-Nov-18 21:25N 40°33' W 074°15'0 0.0
2017-Nov-18 20:56N 40°33' W 074°15'0 0.0
2017-Nov-18 20:26N 40°33' W 074°15'0 0.0
2017-Nov-18 19:32N 40°33' W 074°15'0 0.0
2017-Nov-18 19:25N 40°33' W 074°15'0 0.0
2017-Nov-18 18:56N 40°33' W 074°15'0 0.0
2017-Nov-18 18:20N 40°33' W 074°15'0 0.0
2017-Nov-18 17:55N 40°33' W 074°15'0 0.0
2017-Nov-18 17:19N 40°33' W 074°15'0 0.0
2017-Nov-18 16:55N 40°33' W 074°15'0 0.0
2017-Nov-18 16:26N 40°33' W 074°15'0 0.2
2017-Nov-18 15:54N 40°33' W 074°15'1 1.8
2017-Nov-18 15:30N 40°33' W 074°15'3 5.5
2017-Nov-18 15:00N 40°35' W 074°12'0 0.0
2017-Nov-18 14:29N 40°35' W 074°12'0 0.0
2017-Nov-18 13:59N 40°35' W 074°12'0 0.0
2017-Nov-18 13:29N 40°35' W 074°12'3 5.2
2017-Nov-18 13:00N 40°38' W 074°12'4 8.2
2017-Nov-18 12:30N 40°39' W 074°07'3 6.6
2017-Nov-18 11:59N 40°40' W 074°02'0 0.1
2017-Nov-18 11:29N 40°40' W 074°02'0 0.0
2017-Nov-18 10:59N 40°40' W 074°02'0 0.0
2017-Nov-18 10:29N 40°40' W 074°02'0 0.1
2017-Nov-18 09:59N 40°40' W 074°02'0 0.1
2017-Nov-18 09:29N 40°40' W 074°02'0 0.2
2017-Nov-18 08:59N 40°40' W 074°02'0 0.1
2017-Nov-18 08:29N 40°40' W 074°02'0 0.0
2017-Nov-18 07:59N 40°40' W 074°02'0 0.0
2017-Nov-18 07:29N 40°40' W 074°03'0 0.0
2017-Nov-18 06:59N 40°40' W 074°02'0 0.0
2017-Nov-18 06:29N 40°40' W 074°02'0 0.0
2017-Nov-18 05:59N 40°40' W 074°02'0 0.0
2017-Nov-18 05:29N 40°40' W 074°02'0 0.0
2017-Nov-18 04:59N 40°40' W 074°02'0 0.0
2017-Nov-18 04:29N 40°40' W 074°03'0 0.0
2017-Nov-18 03:59N 40°40' W 074°02'0 0.1
2017-Nov-18 03:29N 40°40' W 074°02'0 0.2
2017-Nov-18 02:59N 40°40' W 074°02'1 1.6
2017-Nov-18 02:30N 40°39' W 074°03'3 6.0
2017-Nov-18 01:59N 40°39' W 074°07'0 0.0
2017-Nov-18 01:29N 40°39' W 074°07'0 0.0
2017-Nov-18 00:56N 40°39' W 074°07'0 0.0
2017-Nov-18 00:29N 40°39' W 074°07'0 0.0
2017-Nov-17 23:56N 40°39' W 074°07'0 0.0
2017-Nov-17 23:26N 40°39' W 074°07'0 0.0
2017-Nov-17 22:59N 40°39' W 074°07'0 0.0
2017-Nov-17 22:29N 40°39' W 074°07'0 0.0
2017-Nov-17 21:59N 40°39' W 074°07'1 2.8
2017-Nov-17 21:30N 40°38' W 074°09'3 6.6
2017-Nov-17 21:00N 40°36' W 074°12'1 1.7
2017-Nov-17 20:29N 40°35' W 074°12'1 2.4
2017-Nov-17 20:00N 40°34' W 074°13'4 6.6
2017-Nov-17 19:21N 40°31' W 074°15'4 7.8
2017-Nov-17 18:51N 40°30' W 074°10'410.5
2017-Nov-17 18:30N 40°29' W 074°06'4 7.1
2017-Nov-17 18:00N 40°32' W 074°02'4 7.7
2017-Nov-17 17:30N 40°35' W 074°01'0 0.1
2017-Nov-17 17:00N 40°35' W 074°01'0 0.0
2017-Nov-17 16:30N 40°35' W 074°01'0 0.0
2017-Nov-17 16:00N 40°35' W 074°01'0 0.0
2017-Nov-17 15:30N 40°35' W 074°01'0 0.0
2017-Nov-17 15:00N 40°35' W 074°01'0 0.0
2017-Nov-17 14:30N 40°35' W 074°01'0 0.0
2017-Nov-17 14:00N 40°35' W 074°01'0 0.0
2017-Nov-17 13:30N 40°35' W 074°01'0 0.0
2017-Nov-17 13:00N 40°35' W 074°01'0 0.1
2017-Nov-17 12:30N 40°35' W 074°01'0 0.0
2017-Nov-17 12:00N 40°35' W 074°01'0 0.0
2017-Nov-17 11:30N 40°35' W 074°01'0 0.0
2017-Nov-17 11:00N 40°35' W 074°01'0 0.0
2017-Nov-17 10:30N 40°35' W 074°01'0 0.0
2017-Nov-17 10:00N 40°35' W 074°01'0 0.0
2017-Nov-17 09:30N 40°35' W 074°01'0 0.0
2017-Nov-17 09:00N 40°35' W 074°01'0 0.0
2017-Nov-17 08:30N 40°35' W 074°01'0 0.0
2017-Nov-17 08:00N 40°35' W 074°01'0 0.0
2017-Nov-17 07:30N 40°35' W 074°01'0 0.0
2017-Nov-17 07:00N 40°35' W 074°01'0 0.0
2017-Nov-17 06:30N 40°35' W 074°01'0 0.0
2017-Nov-17 06:00N 40°35' W 074°01'0 0.0
2017-Nov-17 05:30N 40°35' W 074°01'0 0.0
2017-Nov-17 05:00N 40°35' W 074°01'0 0.0
2017-Nov-17 04:30N 40°35' W 074°01'0 0.0
2017-Nov-17 04:00N 40°35' W 074°01'0 0.0
2017-Nov-17 03:30N 40°35' W 074°01'0 0.0
2017-Nov-17 03:00N 40°35' W 074°01'0 0.0
2017-Nov-17 02:30N 40°35' W 074°01'0 0.0
2017-Nov-17 02:00N 40°35' W 074°01'0 0.0
2017-Nov-17 01:30N 40°35' W 074°01'0 0.0
2017-Nov-17 01:00N 40°35' W 074°01'0 0.0
2017-Nov-17 00:30N 40°35' W 074°01'0 0.0
2017-Nov-17 00:00N 40°35' W 074°01'0 0.0
2017-Nov-16 23:30N 40°35' W 074°01'0 0.0
2017-Nov-16 23:00N 40°35' W 074°01'0 0.0
2017-Nov-16 22:30N 40°35' W 074°01'0 0.1
2017-Nov-16 22:00N 40°35' W 074°01'0 0.0
2017-Nov-16 21:30N 40°35' W 074°01'0 0.1
2017-Nov-16 21:00N 40°35' W 074°01'0 0.1
2017-Nov-16 20:30N 40°35' W 074°01'0 0.0
2017-Nov-16 20:00N 40°35' W 074°01'0 0.0
2017-Nov-16 19:30N 40°35' W 074°01'0 0.0
2017-Nov-16 19:00N 40°35' W 074°01'0 0.0
2017-Nov-16 18:30N 40°35' W 074°01'0 0.0
2017-Nov-16 18:00N 40°35' W 074°01'0 0.0
2017-Nov-16 17:30N 40°35' W 074°01'0 0.0
2017-Nov-16 17:00N 40°35' W 074°01'0 0.0
2017-Nov-16 16:30N 40°35' W 074°01'0 0.0
2017-Nov-16 16:00N 40°35' W 074°01'0 0.0
2017-Nov-16 15:30N 40°35' W 074°01'0 0.0
2017-Nov-16 15:00N 40°35' W 074°01'0 0.0
2017-Nov-16 14:30N 40°35' W 074°01'0 0.0
2017-Nov-16 13:54N 40°35' W 074°01'0 0.3
2017-Nov-16 13:30N 40°36' W 074°01'0 0.3
2017-Nov-16 13:00N 40°35' W 074°01'1 1.8
2017-Nov-16 12:28N 40°35' W 074°02'0 0.9
2017-Nov-16 12:00N 40°35' W 074°02'1 1.3
2017-Nov-16 11:29N 40°36' W 074°01'0 0.1
2017-Nov-16 10:59N 40°36' W 074°01'0 0.0
2017-Nov-16 10:29N 40°36' W 074°01'0 0.1
2017-Nov-16 09:59N 40°36' W 074°01'0 0.0
2017-Nov-16 09:29N 40°36' W 074°01'0 0.0
2017-Nov-16 08:59N 40°36' W 074°01'0 0.1
2017-Nov-16 08:29N 40°36' W 074°01'0 0.0
2017-Nov-16 07:59N 40°36' W 074°01'0 0.2
2017-Nov-16 07:29N 40°35' W 074°01'0 0.1
2017-Nov-16 06:59N 40°35' W 074°01'0 0.0
2017-Nov-16 06:29N 40°35' W 074°01'0 0.0
2017-Nov-16 05:59N 40°35' W 074°01'0 0.1
2017-Nov-16 05:29N 40°35' W 074°01'0 0.0
2017-Nov-16 04:59N 40°35' W 074°01'0 0.1
2017-Nov-16 04:30N 40°35' W 074°01'3 6.4
2017-Nov-16 04:00N 40°38' W 074°03'612.0
2017-Nov-16 03:30N 40°44' W 074°01'611.6
2017-Nov-16 03:00N 40°49' W 073°58'510.7
2017-Nov-16 02:30N 40°54' W 073°55'7 0.2
2017-Nov-14 09:33N 41°01' W 073°53'011.6
2017-Nov-14 09:30N 41°01' W 073°53'611.0
2017-Nov-14 09:00N 40°55' W 073°55'511.2
2017-Nov-14 08:30N 40°50' W 073°58'510.9
2017-Nov-14 08:01N 40°45' W 074°01'510.0
2017-Nov-14 07:31N 40°40' W 074°02'4 8.4
2017-Nov-14 07:00N 40°39' W 074°08'4 7.2
2017-Nov-14 06:30N 40°38' W 074°12'2 4.2
2017-Nov-14 05:59N 40°35' W 074°12'0 0.0
2017-Nov-14 05:29N 40°35' W 074°12'0 0.0
2017-Nov-14 04:56N 40°35' W 074°12'0 0.1
2017-Nov-14 04:26N 40°35' W 074°12'2 4.4
2017-Nov-14 04:00N 40°37' W 074°12'4 7.7
2017-Nov-14 03:31N 40°39' W 074°07'0 0.5
2017-Nov-14 02:58N 40°39' W 074°07'0 0.0
2017-Nov-14 02:28N 40°39' W 074°07'0 0.0
2017-Nov-14 01:58N 40°39' W 074°07'0 0.0
2017-Nov-14 01:25N 40°39' W 074°07'0 0.0
2017-Nov-14 00:58N 40°39' W 074°07'0 0.0
2017-Nov-14 00:28N 40°39' W 074°07'0 0.0
2017-Nov-13 23:58N 40°39' W 074°07'0 0.0
2017-Nov-13 23:28N 40°39' W 074°07'0 0.0
2017-Nov-13 22:58N 40°39' W 074°07'0 0.0
2017-Nov-13 22:25N 40°39' W 074°07'0 0.0
2017-Nov-13 21:58N 40°39' W 074°07'66 1.4
2017-Nov-11 22:19N 41°12' W 072°53'0 0.1
2017-Nov-11 21:56N 41°12' W 072°53'0 0.0
2017-Nov-11 20:13N 41°12' W 072°53'0 0.0
2017-Nov-11 19:08N 41°12' W 072°53'0 0.0
2017-Nov-11 18:50N 41°12' W 072°53'0 0.0
2017-Nov-11 18:28N 41°12' W 072°53'0 0.1
2017-Nov-11 17:58N 41°12' W 072°53'0 0.0
2017-Nov-11 14:36N 41°12' W 072°52'0 0.8
2017-Nov-11 14:29N 41°12' W 072°53'35 8.9
2017-Nov-11 10:33N 40°57' W 073°34'310.5
2017-Nov-11 10:18N 40°55' W 073°37'410.4
2017-Nov-11 09:57N 40°54' W 073°42'510.2
2017-Nov-11 09:30N 40°51' W 073°46'4 7.1
2017-Nov-11 08:59N 40°48' W 073°50'4 9.2
2017-Nov-11 08:30N 40°47' W 073°55'3 6.2
2017-Nov-11 08:00N 40°45' W 073°58'4 8.3
2017-Nov-11 07:30N 40°41' W 074°01'4 7.6
2017-Nov-11 07:00N 40°39' W 074°05'3 5.7
2017-Nov-11 06:30N 40°39' W 074°08'2 4.5
2017-Nov-11 06:00N 40°38' W 074°11'2 4.0
2017-Nov-11 05:30N 40°37' W 074°12'1 2.2
2017-Nov-11 04:54N 40°35' W 074°13'0 0.0
2017-Nov-11 04:25N 40°35' W 074°13'3 7.3
2017-Nov-11 04:00N 40°38' W 074°12'4 7.6
2017-Nov-11 03:30N 40°39' W 074°07'0 0.1
2017-Nov-11 03:00N 40°39' W 074°07'0 0.0
2017-Nov-11 02:30N 40°39' W 074°07'0 0.0
2017-Nov-11 02:00N 40°39' W 074°07'0 0.0
2017-Nov-11 01:30N 40°39' W 074°07'0 0.0
2017-Nov-11 01:00N 40°39' W 074°07'0 0.0
2017-Nov-11 00:30N 40°39' W 074°07'0 0.0
2017-Nov-11 00:00N 40°39' W 074°07'0 0.0
2017-Nov-10 23:30N 40°39' W 074°07'0 0.0
2017-Nov-10 23:00N 40°39' W 074°07'0 0.0
2017-Nov-10 22:30N 40°39' W 074°07'0 0.0
2017-Nov-10 22:00N 40°39' W 074°07'0 0.0
2017-Nov-10 21:30N 40°39' W 074°07'0 0.0
2017-Nov-10 21:00N 40°39' W 074°07'0 0.0
2017-Nov-10 20:27N 40°39' W 074°07'0 0.0
2017-Nov-10 20:00N 40°39' W 074°07'0 0.0
2017-Nov-10 19:30N 40°39' W 074°07'0 0.0
2017-Nov-10 19:00N 40°39' W 074°07'0 0.0
2017-Nov-10 18:30N 40°39' W 074°07'0 0.0
2017-Nov-10 18:00N 40°39' W 074°07'0 0.0
2017-Nov-10 17:30N 40°39' W 074°07'0 0.0
2017-Nov-10 17:00N 40°39' W 074°07'0 0.0
2017-Nov-10 16:30N 40°39' W 074°07'0 0.0
2017-Nov-10 16:00N 40°39' W 074°07'0 0.0
2017-Nov-10 15:30N 40°39' W 074°07'0 0.0
2017-Nov-10 15:00N 40°39' W 074°07'0 0.0
2017-Nov-10 14:30N 40°39' W 074°07'0 0.0
2017-Nov-10 14:00N 40°39' W 074°07'0 0.0
2017-Nov-10 13:30N 40°39' W 074°07'0 0.0
2017-Nov-10 13:00N 40°39' W 074°07'0 0.0
2017-Nov-10 12:30N 40°39' W 074°07'0 0.0
2017-Nov-10 12:00N 40°39' W 074°07'0 0.0
2017-Nov-10 11:30N 40°39' W 074°07'0 0.0
2017-Nov-10 11:00N 40°39' W 074°07'0 0.0
2017-Nov-10 10:30N 40°39' W 074°07'0 0.0
2017-Nov-10 09:57N 40°39' W 074°07'0 0.0
2017-Nov-10 09:30N 40°39' W 074°07'0 0.1
2017-Nov-10 09:01N 40°39' W 074°07'4 8.2
2017-Nov-10 08:30N 40°38' W 074°12'2 3.2
2017-Nov-10 07:55N 40°36' W 074°12'0 0.0
2017-Nov-10 07:19N 40°36' W 074°12'0 0.0
2017-Nov-10 06:55N 40°36' W 074°12'0 0.0
2017-Nov-10 06:28N 40°36' W 074°12'0 0.0
2017-Nov-10 05:58N 40°36' W 074°12'0 0.0
2017-Nov-10 05:22N 40°36' W 074°12'0 0.0
2017-Nov-10 04:49N 40°36' W 074°12'0 0.1
2017-Nov-10 04:30N 40°36' W 074°12'1 1.0
2017-Nov-10 03:59N 40°35' W 074°13'0 0.0
2017-Nov-10 03:30N 40°35' W 074°13'1 1.0
2017-Nov-10 03:00N 40°35' W 074°13'0 1.0
2017-Nov-10 02:30N 40°35' W 074°12'3 6.6
2017-Nov-10 02:00N 40°39' W 074°11'4 8.6
2017-Nov-10 01:30N 40°39' W 074°06'3 6.6
2017-Nov-10 01:00N 40°40' W 074°02'0 0.1
2017-Nov-10 00:30N 40°40' W 074°02'0 0.0
2017-Nov-09 23:58N 40°40' W 074°02'0 0.0
2017-Nov-09 23:28N 40°40' W 074°02'0 0.0
2017-Nov-09 22:58N 40°40' W 074°02'0 0.0
2017-Nov-09 22:28N 40°40' W 074°02'0 0.0
2017-Nov-09 21:25N 40°40' W 074°02'0 0.0
2017-Nov-09 20:58N 40°40' W 074°02'0 0.0
2017-Nov-09 20:28N 40°40' W 074°02'0 0.1
2017-Nov-09 19:58N 40°40' W 074°02'0 0.3
2017-Nov-09 19:28N 40°40' W 074°02'0 0.1
2017-Nov-09 18:58N 40°40' W 074°02'0 0.0
2017-Nov-09 18:28N 40°40' W 074°02'0 0.0
2017-Nov-09 17:58N 40°40' W 074°02'0 0.0
2017-Nov-09 17:28N 40°40' W 074°02'0 0.0
2017-Nov-09 16:58N 40°40' W 074°02'0 0.0
2017-Nov-09 16:28N 40°40' W 074°02'0 0.0
2017-Nov-09 15:58N 40°40' W 074°02'0 0.0
2017-Nov-09 15:28N 40°40' W 074°02'0 0.3
2017-Nov-09 14:58N 40°40' W 074°02'0 0.2
2017-Nov-09 14:28N 40°40' W 074°02'  
Track history (hours):
 
Tides and Currents Weather Stations Pressure Air Temp Water Temp Dewpoint Dewpoint Depression Visibility Wind Speed Wind Dir Waves Ship Positions

Jane A. Bouchard

Owner: TUG JANE A BOUCHARD, MELVILLE, NY. More information available from US FCC via Universal Licensing System and Coast Guard Vessel Documentation Center.

Last reported at 2017-Nov-19 14:00 UTC. Time now 2017-Nov-19 14:13 UTC.
Position N 40°40' W 074°03'.

Length 163 m; draft 7 m.

Type: Towing. MMSI: 366897920.

Date/timePositionNaut miles runAvg speedWind from/ knotsBaromVisibWave heightAir tempDewpointWater temp
2017-Nov-19 14:00N 40°40' W 074°03'1 1.1
2017-Nov-19 13:30N 40°39' W 074°03'0 0.2
2017-Nov-19 13:00N 40°39' W 074°03'0 0.3
2017-Nov-19 12:30N 40°39' W 074°03'0 0.2
2017-Nov-19 12:00N 40°39' W 074°03'0 0.3
2017-Nov-19 11:30N 40°39' W 074°03'4 7.4
2017-Nov-19 11:00N 40°39' W 074°08'3 5.2
2017-Nov-19 10:30N 40°39' W 074°11'3 5.4
2017-Nov-19 10:00N 40°36' W 074°12'3 5.4
2017-Nov-19 09:29N 40°33' W 074°13'2 3.2
2017-Nov-19 09:00N 40°33' W 074°15'0 0.1
2017-Nov-19 08:30N 40°33' W 074°15'0 0.0
2017-Nov-19 07:57N 40°33' W 074°15'0 0.0
2017-Nov-19 03:44N 40°33' W 074°15'0 0.0
2017-Nov-19 03:20N 40°33' W 074°15'0 0.0
2017-Nov-19 02:50N 40°33' W 074°15'0 0.0
2017-Nov-19 02:26N 40°33' W 074°15'0 0.0
2017-Nov-19 01:44N 40°33' W 074°15'0 0.0
2017-Nov-19 01:20N 40°33' W 074°15'0 0.0
2017-Nov-19 00:56N 40°33' W 074°15'0 0.0
2017-Nov-19 00:26N 40°33' W 074°15'0 0.0
2017-Nov-18 22:44N 40°33' W 074°15'0 0.0
2017-Nov-18 22:20N 40°33' W 074°15'0 0.0
2017-Nov-18 21:50N 40°33' W 074°15'0 0.0
2017-Nov-18 21:25N 40°33' W 074°15'0 0.0
2017-Nov-18 20:56N 40°33' W 074°15'0 0.0
2017-Nov-18 20:26N 40°33' W 074°15'0 0.0
2017-Nov-18 19:32N 40°33' W 074°15'0 0.0
2017-Nov-18 19:25N 40°33' W 074°15'0 0.0
2017-Nov-18 18:56N 40°33' W 074°15'0 0.0
2017-Nov-18 18:20N 40°33' W 074°15'0 0.0
2017-Nov-18 17:55N 40°33' W 074°15'0 0.0
2017-Nov-18 17:19N 40°33' W 074°15'0 0.0
2017-Nov-18 16:55N 40°33' W 074°15'0 0.0
2017-Nov-18 16:26N 40°33' W 074°15'0 0.2
2017-Nov-18 15:54N 40°33' W 074°15'1 1.8
2017-Nov-18 15:30N 40°33' W 074°15'3 5.5
2017-Nov-18 15:00N 40°35' W 074°12'0 0.0
2017-Nov-18 14:29N 40°35' W 074°12'0 0.0
2017-Nov-18 13:59N 40°35' W 074°12'0 0.0
2017-Nov-18 13:29N 40°35' W 074°12'3 5.2
2017-Nov-18 13:00N 40°38' W 074°12'4 8.2
2017-Nov-18 12:30N 40°39' W 074°07'3 6.6
2017-Nov-18 11:59N 40°40' W 074°02'0 0.1
2017-Nov-18 11:29N 40°40' W 074°02'0 0.0
2017-Nov-18 10:59N 40°40' W 074°02'0 0.0
2017-Nov-18 10:29N 40°40' W 074°02'0 0.1
2017-Nov-18 09:59N 40°40' W 074°02'0 0.1
2017-Nov-18 09:29N 40°40' W 074°02'0 0.2
2017-Nov-18 08:59N 40°40' W 074°02'0 0.1
2017-Nov-18 08:29N 40°40' W 074°02'0 0.0
2017-Nov-18 07:59N 40°40' W 074°02'0 0.0
2017-Nov-18 07:29N 40°40' W 074°03'0 0.0
2017-Nov-18 06:59N 40°40' W 074°02'0 0.0
2017-Nov-18 06:29N 40°40' W 074°02'0 0.0
2017-Nov-18 05:59N 40°40' W 074°02'0 0.0
2017-Nov-18 05:29N 40°40' W 074°02'0 0.0
2017-Nov-18 04:59N 40°40' W 074°02'0 0.0
2017-Nov-18 04:29N 40°40' W 074°03'0 0.0
2017-Nov-18 03:59N 40°40' W 074°02'0 0.1
2017-Nov-18 03:29N 40°40' W 074°02'0 0.2
2017-Nov-18 02:59N 40°40' W 074°02'1 1.6
2017-Nov-18 02:30N 40°39' W 074°03'3 6.0
2017-Nov-18 01:59N 40°39' W 074°07'0 0.0
2017-Nov-18 01:29N 40°39' W 074°07'0 0.0
2017-Nov-18 00:56N 40°39' W 074°07'0 0.0
2017-Nov-18 00:29N 40°39' W 074°07'0 0.0
2017-Nov-17 23:56N 40°39' W 074°07'0 0.0
2017-Nov-17 23:26N 40°39' W 074°07'0 0.0
2017-Nov-17 22:59N 40°39' W 074°07'0 0.0
2017-Nov-17 22:29N 40°39' W 074°07'0 0.0
2017-Nov-17 21:59N 40°39' W 074°07'1 2.8
2017-Nov-17 21:30N 40°38' W 074°09'3 6.6
2017-Nov-17 21:00N 40°36' W 074°12'1 1.7
2017-Nov-17 20:29N 40°35' W 074°12'1 2.4
2017-Nov-17 20:00N 40°34' W 074°13'4 6.6
2017-Nov-17 19:21N 40°31' W 074°15'4 7.8
2017-Nov-17 18:51N 40°30' W 074°10'410.5
2017-Nov-17 18:30N 40°29' W 074°06'4 7.1
2017-Nov-17 18:00N 40°32' W 074°02'4 7.7
2017-Nov-17 17:30N 40°35' W 074°01'0 0.1
2017-Nov-17 17:00N 40°35' W 074°01'0 0.0
2017-Nov-17 16:30N 40°35' W 074°01'0 0.0
2017-Nov-17 16:00N 40°35' W 074°01'0 0.0
2017-Nov-17 15:30N 40°35' W 074°01'0 0.0
2017-Nov-17 15:00N 40°35' W 074°01'0 0.0
2017-Nov-17 14:30N 40°35' W 074°01'0 0.0
2017-Nov-17 14:00N 40°35' W 074°01'0 0.0
2017-Nov-17 13:30N 40°35' W 074°01'0 0.0
2017-Nov-17 13:00N 40°35' W 074°01'0 0.1
2017-Nov-17 12:30N 40°35' W 074°01'0 0.0
2017-Nov-17 12:00N 40°35' W 074°01'0 0.0
2017-Nov-17 11:30N 40°35' W 074°01'0 0.0
2017-Nov-17 11:00N 40°35' W 074°01'0 0.0
2017-Nov-17 10:30N 40°35' W 074°01'0 0.0
2017-Nov-17 10:00N 40°35' W 074°01'0 0.0
2017-Nov-17 09:30N 40°35' W 074°01'0 0.0
2017-Nov-17 09:00N 40°35' W 074°01'0 0.0
2017-Nov-17 08:30N 40°35' W 074°01'0 0.0
2017-Nov-17 08:00N 40°35' W 074°01'0 0.0
2017-Nov-17 07:30N 40°35' W 074°01'0 0.0
2017-Nov-17 07:00N 40°35' W 074°01'0 0.0
2017-Nov-17 06:30N 40°35' W 074°01'0 0.0
2017-Nov-17 06:00N 40°35' W 074°01'0 0.0
2017-Nov-17 05:30N 40°35' W 074°01'0 0.0
2017-Nov-17 05:00N 40°35' W 074°01'0 0.0
2017-Nov-17 04:30N 40°35' W 074°01'0 0.0
2017-Nov-17 04:00N 40°35' W 074°01'0 0.0
2017-Nov-17 03:30N 40°35' W 074°01'0 0.0
2017-Nov-17 03:00N 40°35' W 074°01'0 0.0
2017-Nov-17 02:30N 40°35' W 074°01'0 0.0
2017-Nov-17 02:00N 40°35' W 074°01'0 0.0
2017-Nov-17 01:30N 40°35' W 074°01'0 0.0
2017-Nov-17 01:00N 40°35' W 074°01'0 0.0
2017-Nov-17 00:30N 40°35' W 074°01'0 0.0
2017-Nov-17 00:00N 40°35' W 074°01'0 0.0
2017-Nov-16 23:30N 40°35' W 074°01'0 0.0
2017-Nov-16 23:00N 40°35' W 074°01'0 0.0
2017-Nov-16 22:30N 40°35' W 074°01'0 0.1
2017-Nov-16 22:00N 40°35' W 074°01'0 0.0
2017-Nov-16 21:30N 40°35' W 074°01'0 0.1
2017-Nov-16 21:00N 40°35' W 074°01'0 0.1
2017-Nov-16 20:30N 40°35' W 074°01'0 0.0
2017-Nov-16 20:00N 40°35' W 074°01'0 0.0
2017-Nov-16 19:30N 40°35' W 074°01'0 0.0
2017-Nov-16 19:00N 40°35' W 074°01'0 0.0
2017-Nov-16 18:30N 40°35' W 074°01'0 0.0
2017-Nov-16 18:00N 40°35' W 074°01'0 0.0
2017-Nov-16 17:30N 40°35' W 074°01'0 0.0
2017-Nov-16 17:00N 40°35' W 074°01'0 0.0
2017-Nov-16 16:30N 40°35' W 074°01'0 0.0
2017-Nov-16 16:00N 40°35' W 074°01'0 0.0
2017-Nov-16 15:30N 40°35' W 074°01'0 0.0
2017-Nov-16 15:00N 40°35' W 074°01'0 0.0
2017-Nov-16 14:30N 40°35' W 074°01'0 0.0
2017-Nov-16 13:54N 40°35' W 074°01'0 0.3
2017-Nov-16 13:30N 40°36' W 074°01'0 0.3
2017-Nov-16 13:00N 40°35' W 074°01'1 1.8
2017-Nov-16 12:28N 40°35' W 074°02'0 0.9
2017-Nov-16 12:00N 40°35' W 074°02'1 1.3
2017-Nov-16 11:29N 40°36' W 074°01'0 0.1
2017-Nov-16 10:59N 40°36' W 074°01'0 0.0
2017-Nov-16 10:29N 40°36' W 074°01'0 0.1
2017-Nov-16 09:59N 40°36' W 074°01'0 0.0
2017-Nov-16 09:29N 40°36' W 074°01'0 0.0
2017-Nov-16 08:59N 40°36' W 074°01'0 0.1
2017-Nov-16 08:29N 40°36' W 074°01'0 0.0
2017-Nov-16 07:59N 40°36' W 074°01'0 0.2
2017-Nov-16 07:29N 40°35' W 074°01'0 0.1
2017-Nov-16 06:59N 40°35' W 074°01'0 0.0
2017-Nov-16 06:29N 40°35' W 074°01'0 0.0
2017-Nov-16 05:59N 40°35' W 074°01'0 0.1
2017-Nov-16 05:29N 40°35' W 074°01'0 0.0
2017-Nov-16 04:59N 40°35' W 074°01'0 0.1
2017-Nov-16 04:30N 40°35' W 074°01'3 6.4
2017-Nov-16 04:00N 40°38' W 074°03'612.0
2017-Nov-16 03:30N 40°44' W 074°01'611.6
2017-Nov-16 03:00N 40°49' W 073°58'510.7
2017-Nov-16 02:30N 40°54' W 073°55'7 0.2
2017-Nov-14 09:33N 41°01' W 073°53'011.6
2017-Nov-14 09:30N 41°01' W 073°53'611.0
2017-Nov-14 09:00N 40°55' W 073°55'511.2
2017-Nov-14 08:30N 40°50' W 073°58'510.9
2017-Nov-14 08:01N 40°45' W 074°01'510.0
2017-Nov-14 07:31N 40°40' W 074°02'4 8.4
2017-Nov-14 07:00N 40°39' W 074°08'4 7.2
2017-Nov-14 06:30N 40°38' W 074°12'2 4.2
2017-Nov-14 05:59N 40°35' W 074°12'0 0.0
2017-Nov-14 05:29N 40°35' W 074°12'0 0.0
2017-Nov-14 04:56N 40°35' W 074°12'0 0.1
2017-Nov-14 04:26N 40°35' W 074°12'2 4.4
2017-Nov-14 04:00N 40°37' W 074°12'4 7.7
2017-Nov-14 03:31N 40°39' W 074°07'0 0.5
2017-Nov-14 02:58N 40°39' W 074°07'0 0.0
2017-Nov-14 02:28N 40°39' W 074°07'0 0.0
2017-Nov-14 01:58N 40°39' W 074°07'0 0.0
2017-Nov-14 01:25N 40°39' W 074°07'0 0.0
2017-Nov-14 00:58N 40°39' W 074°07'0 0.0
2017-Nov-14 00:28N 40°39' W 074°07'0 0.0
2017-Nov-13 23:58N 40°39' W 074°07'0 0.0
2017-Nov-13 23:28N 40°39' W 074°07'0 0.0
2017-Nov-13 22:58N 40°39' W 074°07'0 0.0
2017-Nov-13 22:25N 40°39' W 074°07'0 0.0
2017-Nov-13 21:58N 40°39' W 074°07'66 1.4
2017-Nov-11 22:19N 41°12' W 072°53'0 0.1
2017-Nov-11 21:56N 41°12' W 072°53'0 0.0
2017-Nov-11 20:13N 41°12' W 072°53'0 0.0
2017-Nov-11 19:08N 41°12' W 072°53'0 0.0
2017-Nov-11 18:50N 41°12' W 072°53'0 0.0
2017-Nov-11 18:28N 41°12' W 072°53'0 0.1
2017-Nov-11 17:58N 41°12' W 072°53'0 0.0
2017-Nov-11 14:36N 41°12' W 072°52'0 0.8
2017-Nov-11 14:29N 41°12' W 072°53'35 8.9
2017-Nov-11 10:33N 40°57' W 073°34'310.5
2017-Nov-11 10:18N 40°55' W 073°37'410.4
2017-Nov-11 09:57N 40°54' W 073°42'510.2
2017-Nov-11 09:30N 40°51' W 073°46'4 7.1
2017-Nov-11 08:59N 40°48' W 073°50'4 9.2
2017-Nov-11 08:30N 40°47' W 073°55'3 6.2
2017-Nov-11 08:00N 40°45' W 073°58'4 8.3
2017-Nov-11 07:30N 40°41' W 074°01'4 7.6
2017-Nov-11 07:00N 40°39' W 074°05'3 5.7
2017-Nov-11 06:30N 40°39' W 074°08'2 4.5
2017-Nov-11 06:00N 40°38' W 074°11'2 4.0
2017-Nov-11 05:30N 40°37' W 074°12'1 2.2
2017-Nov-11 04:54N 40°35' W 074°13'0 0.0
2017-Nov-11 04:25N 40°35' W 074°13'3 7.3
2017-Nov-11 04:00N 40°38' W 074°12'4 7.6
2017-Nov-11 03:30N 40°39' W 074°07'0 0.1
2017-Nov-11 03:00N 40°39' W 074°07'0 0.0
2017-Nov-11 02:30N 40°39' W 074°07'0 0.0
2017-Nov-11 02:00N 40°39' W 074°07'0 0.0
2017-Nov-11 01:30N 40°39' W 074°07'0 0.0
2017-Nov-11 01:00N 40°39' W 074°07'0 0.0
2017-Nov-11 00:30N 40°39' W 074°07'0 0.0
2017-Nov-11 00:00N 40°39' W 074°07'0 0.0
2017-Nov-10 23:30N 40°39' W 074°07'0 0.0
2017-Nov-10 23:00N 40°39' W 074°07'0 0.0
2017-Nov-10 22:30N 40°39' W 074°07'0 0.0
2017-Nov-10 22:00N 40°39' W 074°07'0 0.0
2017-Nov-10 21:30N 40°39' W 074°07'0 0.0
2017-Nov-10 21:00N 40°39' W 074°07'0 0.0
2017-Nov-10 20:27N 40°39' W 074°07'0 0.0
2017-Nov-10 20:00N 40°39' W 074°07'0 0.0
2017-Nov-10 19:30N 40°39' W 074°07'0 0.0
2017-Nov-10 19:00N 40°39' W 074°07'0 0.0
2017-Nov-10 18:30N 40°39' W 074°07'0 0.0
2017-Nov-10 18:00N 40°39' W 074°07'0 0.0
2017-Nov-10 17:30N 40°39' W 074°07'0 0.0
2017-Nov-10 17:00N 40°39' W 074°07'0 0.0
2017-Nov-10 16:30N 40°39' W 074°07'0 0.0
2017-Nov-10 16:00N 40°39' W 074°07'0 0.0
2017-Nov-10 15:30N 40°39' W 074°07'0 0.0
2017-Nov-10 15:00N 40°39' W 074°07'0 0.0
2017-Nov-10 14:30N 40°39' W 074°07'0 0.0
2017-Nov-10 14:00N 40°39' W 074°07'0 0.0
2017-Nov-10 13:30N 40°39' W 074°07'0 0.0
2017-Nov-10 13:00N 40°39' W 074°07'0 0.0
2017-Nov-10 12:30N 40°39' W 074°07'0 0.0
2017-Nov-10 12:00N 40°39' W 074°07'0 0.0
2017-Nov-10 11:30N 40°39' W 074°07'0 0.0
2017-Nov-10 11:00N 40°39' W 074°07'0 0.0
2017-Nov-10 10:30N 40°39' W 074°07'0 0.0
2017-Nov-10 09:57N 40°39' W 074°07'0 0.0
2017-Nov-10 09:30N 40°39' W 074°07'0 0.1
2017-Nov-10 09:01N 40°39' W 074°07'4 8.2
2017-Nov-10 08:30N 40°38' W 074°12'2 3.2
2017-Nov-10 07:55N 40°36' W 074°12'0 0.0
2017-Nov-10 07:19N 40°36' W 074°12'0 0.0
2017-Nov-10 06:55N 40°36' W 074°12'0 0.0
2017-Nov-10 06:28N 40°36' W 074°12'0 0.0
2017-Nov-10 05:58N 40°36' W 074°12'0 0.0
2017-Nov-10 05:22N 40°36' W 074°12'0 0.0
2017-Nov-10 04:49N 40°36' W 074°12'0 0.1
2017-Nov-10 04:30N 40°36' W 074°12'1 1.0
2017-Nov-10 03:59N 40°35' W 074°13'0 0.0
2017-Nov-10 03:30N 40°35' W 074°13'1 1.0
2017-Nov-10 03:00N 40°35' W 074°13'0 1.0
2017-Nov-10 02:30N 40°35' W 074°12'3 6.6
2017-Nov-10 02:00N 40°39' W 074°11'4 8.6
2017-Nov-10 01:30N 40°39' W 074°06'3 6.6
2017-Nov-10 01:00N 40°40' W 074°02'0 0.1
2017-Nov-10 00:30N 40°40' W 074°02'0 0.0
2017-Nov-09 23:58N 40°40' W 074°02'0 0.0
2017-Nov-09 23:28N 40°40' W 074°02'0 0.0
2017-Nov-09 22:58N 40°40' W 074°02'0 0.0
2017-Nov-09 22:28N 40°40' W 074°02'0 0.0
2017-Nov-09 21:25N 40°40' W 074°02'0 0.0
2017-Nov-09 20:58N 40°40' W 074°02'0 0.0
2017-Nov-09 20:28N 40°40' W 074°02'0 0.1
2017-Nov-09 19:58N 40°40' W 074°02'0 0.3
2017-Nov-09 19:28N 40°40' W 074°02'0 0.1
2017-Nov-09 18:58N 40°40' W 074°02'0 0.0
2017-Nov-09 18:28N 40°40' W 074°02'0 0.0
2017-Nov-09 17:58N 40°40' W 074°02'0 0.0
2017-Nov-09 17:28N 40°40' W 074°02'0 0.0
2017-Nov-09 16:58N 40°40' W 074°02'0 0.0
2017-Nov-09 16:28N 40°40' W 074°02'0 0.0
2017-Nov-09 15:58N 40°40' W 074°02'0 0.0
2017-Nov-09 15:28N 40°40' W 074°02'0 0.3
2017-Nov-09 14:58N 40°40' W 074°02'0 0.2
2017-Nov-09 14:28N 40°40' W 074°02'  

Dump ship's entire track history